createdAt,value
2022-10-17T00:00:08.156Z,7.85
2022-10-17T00:02:35.520Z,11.75
2022-10-17T00:05:03.019Z,9.93
2022-10-17T00:07:31.114Z,12.30
2022-10-17T00:09:58.808Z,8.90
2022-10-17T00:12:26.292Z,11.48
2022-10-17T00:14:53.653Z,10.82
2022-10-17T00:17:21.258Z,13.60
2022-10-17T00:19:48.867Z,9.20
2022-10-17T00:22:16.325Z,10.18
2022-10-17T00:24:43.699Z,10.38
2022-10-17T00:27:11.048Z,13.80
2022-10-17T00:29:38.787Z,10.63
2022-10-17T00:32:06.378Z,11.35
2022-10-17T00:34:34.110Z,9.32
2022-10-17T00:37:01.463Z,9.63
2022-10-17T00:39:28.944Z,7.68
2022-10-17T00:41:56.306Z,6.60
2022-10-17T00:44:29.569Z,6.70
2022-10-17T00:46:58.351Z,7.38
2022-10-17T00:49:29.309Z,10.77
2022-10-17T00:52:00.631Z,6.60
2022-10-17T00:54:32.550Z,7.13
2022-10-17T00:57:00.645Z,6.60
2022-10-17T00:59:28.834Z,7.90
2022-10-17T01:02:06.996Z,8.55
2022-10-17T01:04:38.314Z,7.53
2022-10-17T01:07:05.683Z,5.00
2022-10-17T01:09:33.283Z,6.35
2022-10-17T01:12:19.008Z,5.55
2022-10-17T01:14:58.610Z,6.13
2022-10-17T01:17:40.370Z,5.47
2022-10-17T01:20:49.857Z,6.05
2022-10-17T01:23:42.044Z,7.70
2022-10-17T01:26:54.406Z,5.57
2022-10-17T01:29:43.619Z,6.55
2022-10-17T01:32:17.096Z,4.88
2022-10-17T01:34:56.094Z,6.00
2022-10-17T01:37:33.682Z,6.80
2022-10-17T01:40:21.919Z,5.82
2022-10-17T01:42:57.301Z,5.50
2022-10-17T01:45:24.913Z,5.05
2022-10-17T01:47:53.221Z,4.00
2022-10-17T01:50:24.909Z,5.28
2022-10-17T01:52:56.827Z,4.85
2022-10-17T01:55:28.871Z,5.22
2022-10-17T01:58:04.396Z,5.10
2022-10-17T02:03:10.877Z,3.17
2022-10-17T02:05:41.369Z,5.38
2022-10-17T02:08:09.328Z,3.83
2022-10-17T02:10:42.314Z,8.05
2022-10-17T02:13:20.480Z,4.82
2022-10-17T02:15:55.638Z,5.93
2022-10-17T02:18:36.207Z,3.15
2022-10-17T02:21:08.848Z,4.78
2022-10-17T02:23:43.286Z,3.58
2022-10-17T02:26:24.086Z,4.93
2022-10-17T02:28:57.642Z,3.60
2022-10-17T02:31:36.457Z,6.57
2022-10-17T02:34:10.174Z,4.60
2022-10-17T02:36:42.217Z,5.03
2022-10-17T02:39:10.176Z,4.05
2022-10-17T02:41:39.970Z,4.18
2022-10-17T02:44:08.981Z,5.07
2022-10-17T02:46:37.781Z,3.50
2022-10-17T02:49:14.144Z,3.55
2022-10-17T02:51:57.833Z,4.90
2022-10-17T02:54:38.389Z,3.03
2022-10-17T02:57:43.453Z,6.50
2022-10-17T03:00:13.719Z,7.00
2022-10-17T03:02:42.594Z,2.97
2022-10-17T03:05:11.510Z,3.75
2022-10-17T03:07:39.111Z,4.05
2022-10-17T03:11:09.840Z,5.68
2022-10-17T03:13:39.722Z,3.40
2022-10-17T03:16:07.812Z,4.05
2022-10-17T03:18:35.287Z,5.70
2022-10-17T03:21:02.651Z,3.85
2022-10-17T03:23:30.125Z,3.53
2022-10-17T03:25:57.488Z,5.28
2022-10-17T03:28:24.990Z,5.53
2022-10-17T03:30:52.459Z,4.78
2022-10-17T03:33:19.946Z,4.43
2022-10-17T03:35:47.563Z,4.50
2022-10-17T03:38:15.143Z,5.20
2022-10-17T03:44:49.828Z,5.18
2022-10-17T03:47:17.301Z,5.97
2022-10-17T03:49:45.034Z,6.15
2022-10-17T03:52:13.227Z,5.45
2022-10-17T03:54:41.200Z,5.80
2022-10-17T03:57:08.550Z,5.18
2022-10-17T03:59:36.032Z,3.90
2022-10-17T04:02:03.513Z,3.70
2022-10-17T04:04:30.929Z,4.80
2022-10-17T04:06:58.356Z,5.55
2022-10-17T04:09:25.959Z,5.47
2022-10-17T04:11:53.333Z,6.43
2022-10-17T04:14:20.802Z,4.53
2022-10-17T04:17:50.926Z,3.90
2022-10-17T04:20:18.431Z,5.70
2022-10-17T04:22:46.008Z,6.10
2022-10-17T04:25:13.851Z,5.10
2022-10-17T04:27:41.247Z,4.40
2022-10-17T04:30:08.813Z,3.85
2022-10-17T04:32:38.342Z,6.15
2022-10-17T04:35:06.172Z,7.82
2022-10-17T04:37:33.649Z,3.80
2022-10-17T04:40:01.042Z,3.90
2022-10-17T04:42:29.633Z,6.35
2022-10-17T04:44:57.420Z,3.95
2022-10-17T04:47:25.023Z,5.82
2022-10-17T04:49:52.623Z,5.95
2022-10-17T04:52:20.229Z,5.85
2022-10-17T04:54:47.709Z,4.10
2022-10-17T04:57:15.310Z,5.03
2022-10-17T04:59:42.793Z,8.85
2022-10-17T05:02:10.267Z,6.53
2022-10-17T05:04:37.771Z,3.47
2022-10-17T05:07:05.350Z,5.10
2022-10-17T05:09:32.722Z,4.45
2022-10-17T05:12:00.086Z,7.97
2022-10-17T05:14:27.680Z,5.35
2022-10-17T05:16:56.887Z,6.70
2022-10-17T05:19:24.567Z,6.43
2022-10-17T05:22:38.340Z,6.82
2022-10-17T05:25:09.327Z,5.97
2022-10-17T05:27:36.817Z,5.72
2022-10-17T05:30:05.012Z,5.43
2022-10-17T05:32:32.643Z,5.10
2022-10-17T05:35:00.214Z,4.25
2022-10-17T05:37:34.142Z,5.57
2022-10-17T05:40:01.817Z,6.88
2022-10-17T05:42:29.955Z,4.05
2022-10-17T05:44:57.608Z,4.30
2022-10-17T05:47:29.086Z,5.13
2022-10-17T05:49:56.643Z,6.47
2022-10-17T05:52:24.357Z,5.78
2022-10-17T05:54:56.084Z,5.05
2022-10-17T05:57:33.709Z,5.32
2022-10-17T06:00:01.078Z,5.90
2022-10-17T06:02:28.942Z,7.90
2022-10-17T06:04:56.627Z,4.90
2022-10-17T06:07:24.365Z,5.97
2022-10-17T06:09:51.851Z,8.75
2022-10-17T06:12:19.433Z,5.97
2022-10-17T06:14:46.915Z,6.95
2022-10-17T06:17:16.375Z,10.00
2022-10-17T06:19:45.204Z,7.68
2022-10-17T06:22:12.958Z,6.03
2022-10-17T06:24:42.733Z,6.38
2022-10-17T06:27:11.949Z,7.05
2022-10-17T06:29:39.988Z,7.43
2022-10-17T06:32:09.918Z,8.95
2022-10-17T06:34:40.455Z,7.15
2022-10-17T06:37:07.935Z,6.28
2022-10-17T06:39:36.016Z,9.82
2022-10-17T06:42:04.369Z,5.97
2022-10-17T06:44:32.121Z,10.35
2022-10-17T06:47:00.508Z,6.68
2022-10-17T06:49:27.991Z,9.95
2022-10-17T06:51:55.945Z,8.20
2022-10-17T06:54:23.425Z,14.13
2022-10-17T06:56:50.788Z,7.13
2022-10-17T06:59:18.267Z,7.97
2022-10-17T07:01:47.134Z,12.57
2022-10-17T07:04:16.351Z,6.22
2022-10-17T07:06:44.074Z,8.55
2022-10-17T07:09:11.675Z,8.68
2022-10-17T07:11:40.352Z,9.98
2022-10-17T07:14:07.715Z,9.32
2022-10-17T07:16:35.442Z,5.20
2022-10-17T07:19:02.929Z,7.65
2022-10-17T07:21:35.252Z,7.72
2022-10-17T07:24:07.602Z,4.68
2022-10-17T07:26:35.452Z,7.05
2022-10-17T07:29:03.329Z,6.38
2022-10-17T07:31:30.773Z,7.45
2022-10-17T07:34:00.321Z,6.45
2022-10-17T07:36:27.775Z,6.88
2022-10-17T07:38:55.282Z,8.27
2022-10-17T07:41:22.750Z,7.28
2022-10-17T07:43:50.336Z,8.07
2022-10-17T07:46:17.821Z,5.18
2022-10-17T07:48:45.532Z,12.63
2022-10-17T07:51:13.261Z,7.53
2022-10-17T07:53:42.747Z,6.68
2022-10-17T07:56:14.104Z,7.90
2022-10-17T07:58:41.719Z,8.98
2022-10-17T08:01:15.638Z,6.43
2022-10-17T08:03:44.721Z,5.33
2022-10-17T08:06:12.667Z,6.80
2022-10-17T08:08:41.882Z,8.27
2022-10-17T08:11:16.232Z,8.02
2022-10-17T08:13:43.886Z,5.15
2022-10-17T08:16:12.914Z,9.32
2022-10-17T08:18:41.593Z,5.00
2022-10-17T08:21:24.267Z,8.07
2022-10-17T08:23:51.805Z,7.05
2022-10-17T08:26:20.250Z,8.65
2022-10-17T08:28:48.359Z,6.00
2022-10-17T08:31:20.619Z,5.13
2022-10-17T08:33:50.005Z,6.88
2022-10-17T08:36:19.775Z,7.10
2022-10-17T08:38:51.810Z,8.98
2022-10-17T08:41:45.229Z,6.82
2022-10-17T08:44:34.546Z,5.85
2022-10-17T08:47:04.451Z,5.50
2022-10-17T08:49:31.894Z,6.05
2022-10-17T08:52:04.778Z,9.38
2022-10-17T08:54:42.104Z,3.92
2022-10-17T08:57:17.262Z,7.40
2022-10-17T08:59:46.310Z,9.90
2022-10-17T09:02:29.308Z,7.32
2022-10-17T09:09:04.081Z,6.22
2022-10-17T09:11:44.274Z,7.97
2022-10-17T09:14:37.076Z,4.70
2022-10-17T09:17:29.089Z,8.63
2022-10-17T09:20:20.887Z,5.72
2022-10-17T09:22:59.049Z,8.90
2022-10-17T09:25:27.477Z,6.57
2022-10-17T09:28:10.927Z,6.13
2022-10-17T09:30:45.196Z,5.35
2022-10-17T09:33:28.767Z,8.52
2022-10-17T09:36:08.892Z,6.57
2022-10-17T09:38:42.625Z,7.28
2022-10-17T09:41:43.125Z,6.60
2022-10-17T09:44:17.656Z,6.40
2022-10-17T09:47:34.119Z,8.45
2022-10-17T09:50:03.023Z,8.82
2022-10-17T09:52:48.141Z,5.80
2022-10-17T09:55:37.706Z,4.55
2022-10-17T09:58:07.017Z,5.22
2022-10-17T10:00:41.250Z,5.82
2022-10-17T10:03:29.199Z,7.68
2022-10-17T10:06:05.700Z,8.73
2022-10-17T10:08:36.875Z,5.47
2022-10-17T10:11:13.480Z,7.93
2022-10-17T10:13:41.691Z,6.82
2022-10-17T10:16:15.527Z,5.80
2022-10-17T10:18:47.482Z,10.07
2022-10-17T10:21:20.319Z,10.48
2022-10-17T10:24:14.728Z,4.00
2022-10-17T10:26:48.095Z,3.38
2022-10-17T10:29:21.763Z,7.60
2022-10-17T10:31:51.652Z,6.65
2022-10-17T10:34:26.948Z,9.35
2022-10-17T10:37:06.894Z,4.43
2022-10-17T10:39:36.627Z,6.22
2022-10-17T10:42:06.444Z,6.75
2022-10-17T10:44:34.050Z,6.13
2022-10-17T10:47:24.285Z,11.18
2022-10-17T10:49:53.698Z,5.35
2022-10-17T10:52:32.326Z,6.95
2022-10-17T10:55:05.344Z,6.57
2022-10-17T10:57:35.288Z,5.63
2022-10-17T11:00:15.422Z,5.95
2022-10-17T11:02:52.908Z,4.45
2022-10-17T11:05:26.861Z,6.35
2022-10-17T11:08:00.411Z,6.93
2022-10-17T11:11:00.214Z,3.25
2022-10-17T11:13:32.103Z,8.10
2022-10-17T11:16:04.897Z,4.45
2022-10-17T11:18:44.931Z,10.38
2022-10-17T11:21:24.133Z,6.10
2022-10-17T11:24:09.249Z,7.93
2022-10-17T11:26:46.709Z,10.88
2022-10-17T11:29:13.883Z,3.70
2022-10-17T11:31:52.828Z,3.75
2022-10-17T11:34:25.147Z,6.05
2022-10-17T11:36:56.958Z,7.97
2022-10-17T11:39:32.556Z,5.25
2022-10-17T11:42:07.232Z,7.20
2022-10-17T11:44:39.362Z,6.47
2022-10-17T11:47:17.716Z,7.30
2022-10-17T11:49:50.870Z,4.20
2022-10-17T11:52:55.378Z,4.72
2022-10-17T11:55:26.407Z,5.60
2022-10-17T11:58:18.216Z,5.82
2022-10-17T12:01:08.431Z,6.20
2022-10-17T12:04:01.720Z,5.05
2022-10-17T12:06:57.354Z,2.53
2022-10-17T12:09:27.315Z,8.45
2022-10-17T12:12:02.720Z,3.90
2022-10-17T12:14:40.420Z,7.00
2022-10-17T12:17:28.378Z,6.43
2022-10-17T12:20:21.503Z,4.28
2022-10-17T12:23:17.857Z,6.00
2022-10-17T12:26:03.423Z,3.90
2022-10-17T12:28:37.725Z,5.25
2022-10-17T12:31:23.012Z,3.33
2022-10-17T12:33:55.198Z,9.02
2022-10-17T12:36:22.208Z,6.07
2022-10-17T12:39:13.402Z,3.67
2022-10-17T12:41:40.619Z,4.78
2022-10-17T12:44:13.388Z,5.50
2022-10-17T12:47:00.425Z,5.38
2022-10-17T12:49:46.108Z,7.38
2022-10-17T12:52:23.564Z,3.92
2022-10-17T12:55:26.522Z,5.25
2022-10-17T12:57:57.059Z,2.88
2022-10-17T13:00:28.553Z,3.53
2022-10-17T13:03:03.671Z,4.22
2022-10-17T13:05:34.069Z,6.00
2022-10-17T13:08:04.357Z,6.80
2022-10-17T13:10:36.181Z,4.88
2022-10-17T13:13:15.887Z,6.43
2022-10-17T13:15:50.042Z,7.13
2022-10-17T13:18:22.828Z,6.93
2022-10-17T13:21:06.079Z,6.00
2022-10-17T13:23:37.656Z,4.47
2022-10-17T13:26:10.245Z,7.00
2022-10-17T13:28:39.492Z,6.35
2022-10-17T13:31:07.756Z,10.27
2022-10-17T13:33:40.568Z,8.13
2022-10-17T13:36:15.872Z,5.40
2022-10-17T13:38:43.234Z,8.80
2022-10-17T13:44:02.546Z,5.22
2022-10-17T13:46:37.915Z,6.45
2022-10-17T13:49:23.255Z,8.07
2022-10-17T13:51:54.200Z,3.80
2022-10-17T13:54:36.379Z,6.47
2022-10-17T13:57:04.753Z,4.43
2022-10-17T13:59:39.611Z,7.13
2022-10-17T14:02:14.183Z,11.43
2022-10-17T14:08:05.532Z,9.23
2022-10-17T14:10:27.588Z,8.05
2022-10-17T14:12:55.202Z,6.05
2022-10-17T14:15:25.876Z,6.22
2022-10-17T14:18:06.673Z,7.95
2022-10-17T14:23:38.940Z,4.90
2022-10-17T14:26:21.494Z,6.97
2022-10-17T14:29:04.125Z,7.20
2022-10-17T14:31:35.321Z,5.80
2022-10-17T14:34:04.746Z,10.32
2022-10-17T14:36:44.082Z,10.98
2022-10-17T14:39:20.193Z,9.77
2022-10-17T14:41:47.959Z,4.22
2022-10-17T14:44:35.569Z,6.50
2022-10-17T14:47:30.329Z,4.07
2022-10-17T14:50:02.186Z,3.10
2022-10-17T14:52:31.271Z,5.10
2022-10-17T14:55:00.328Z,7.57
2022-10-17T14:57:33.183Z,5.40
2022-10-17T15:00:00.299Z,7.28
2022-10-17T15:02:29.620Z,6.03
2022-10-17T15:04:57.243Z,12.07
2022-10-17T15:07:24.376Z,6.22
2022-10-17T15:09:52.808Z,5.65
2022-10-17T15:12:25.294Z,7.53
2022-10-17T15:14:53.195Z,4.47
2022-10-17T15:17:31.283Z,5.10
2022-10-17T15:19:59.021Z,7.72
2022-10-17T15:22:26.505Z,6.00
2022-10-17T15:24:53.721Z,3.85
2022-10-17T15:27:22.972Z,4.32
2022-10-17T15:29:50.527Z,6.85
2022-10-17T15:32:17.715Z,7.65
2022-10-17T15:34:44.828Z,7.20
2022-10-17T15:37:17.948Z,10.25
2022-10-17T15:39:46.768Z,5.80
2022-10-17T15:42:13.902Z,7.78
2022-10-17T15:44:44.065Z,4.88
2022-10-17T15:47:22.563Z,6.75
2022-10-17T15:49:49.851Z,6.90
2022-10-17T15:52:17.090Z,8.63
2022-10-17T15:54:44.219Z,5.90
2022-10-17T15:57:18.427Z,8.57
2022-10-17T15:59:47.099Z,4.87
2022-10-17T16:02:15.332Z,6.15
2022-10-17T16:04:42.927Z,12.02
2022-10-17T16:07:10.409Z,5.35
2022-10-17T16:09:37.570Z,4.70
2022-10-17T16:12:06.416Z,7.97
2022-10-17T16:14:34.293Z,6.15
2022-10-17T16:17:01.628Z,8.38
2022-10-17T16:19:30.154Z,15.70
2022-10-17T16:22:00.773Z,8.90
2022-10-17T16:24:30.836Z,7.00
2022-10-17T16:26:57.973Z,8.90
2022-10-17T16:29:25.110Z,7.72
2022-10-17T16:31:52.180Z,7.13
2022-10-17T16:34:19.399Z,16.13
2022-10-17T16:36:46.496Z,7.28
2022-10-17T16:39:13.652Z,15.82
2022-10-17T16:41:41.030Z,8.65
2022-10-17T16:44:10.349Z,10.45
2022-10-17T16:46:37.980Z,13.93
2022-10-17T16:49:06.256Z,9.65
2022-10-17T16:51:35.715Z,9.65
2022-10-17T16:54:04.458Z,9.02
2022-10-17T16:56:32.838Z,7.15
2022-10-17T16:59:00.834Z,8.43
2022-10-17T17:01:31.465Z,6.22
2022-10-17T17:03:58.860Z,9.23
2022-10-17T17:06:28.447Z,9.77
2022-10-17T17:08:56.259Z,9.73
2022-10-17T17:11:25.503Z,11.13
2022-10-17T17:13:55.313Z,7.97
2022-10-17T17:16:23.845Z,7.93
2022-10-17T17:18:56.240Z,18.10
2022-10-17T17:21:23.773Z,9.05
2022-10-17T17:23:51.698Z,10.57
2022-10-17T17:26:20.532Z,9.52
2022-10-17T17:28:48.022Z,6.93
2022-10-17T17:31:17.897Z,6.75
2022-10-17T17:33:46.691Z,10.18
2022-10-17T17:36:19.924Z,7.82
2022-10-17T17:38:47.904Z,15.95
2022-10-17T17:41:17.595Z,9.15
2022-10-17T17:43:46.006Z,6.95
2022-10-17T17:46:14.517Z,11.35
2022-10-17T17:48:42.595Z,17.48
2022-10-17T17:51:11.201Z,8.75
2022-10-17T17:53:38.698Z,9.40
2022-10-17T17:56:10.770Z,9.57
2022-10-17T17:58:37.914Z,8.43
2022-10-17T18:01:15.192Z,10.65
2022-10-17T18:03:42.397Z,13.75
2022-10-17T18:06:09.568Z,10.00
2022-10-17T18:08:36.935Z,10.82
2022-10-17T18:11:04.388Z,11.43
2022-10-17T18:13:31.692Z,10.75
2022-10-17T18:16:00.576Z,6.50
2022-10-17T18:18:29.352Z,10.68
2022-10-17T18:20:56.775Z,9.50
2022-10-17T18:23:24.116Z,9.75
2022-10-17T18:25:55.694Z,8.88
2022-10-17T18:28:23.196Z,9.38
2022-10-17T18:30:50.700Z,10.00
2022-10-17T18:33:17.918Z,8.10
2022-10-17T18:35:45.103Z,8.90
2022-10-17T18:38:12.280Z,11.48
2022-10-17T18:40:39.459Z,8.50
2022-10-17T18:43:06.627Z,10.75
2022-10-17T18:45:33.777Z,9.00
2022-10-17T18:48:00.906Z,13.23
2022-10-17T18:50:28.103Z,14.27
2022-10-17T18:52:55.257Z,42.10
2022-10-17T18:55:22.376Z,26.42
2022-10-17T18:57:49.861Z,27.13
2022-10-17T19:00:17.485Z,19.77
2022-10-17T19:02:44.894Z,14.27
2022-10-17T19:05:12.004Z,10.40
2022-10-17T19:07:39.153Z,14.20
2022-10-17T19:10:06.562Z,12.35
2022-10-17T19:12:33.716Z,13.38
2022-10-17T19:15:00.942Z,11.38
2022-10-17T19:17:28.318Z,13.13
2022-10-17T19:19:55.876Z,10.25
2022-10-17T19:22:23.026Z,11.50
2022-10-17T19:24:50.123Z,13.65
2022-10-17T19:27:17.522Z,10.63
2022-10-17T19:29:44.657Z,8.20
2022-10-17T19:32:15.768Z,11.20
2022-10-17T19:34:45.295Z,9.68
2022-10-17T19:37:12.411Z,12.15
2022-10-17T19:39:39.572Z,12.93
2022-10-17T19:42:07.148Z,11.73
2022-10-17T19:44:34.888Z,11.27
2022-10-17T19:47:02.018Z,11.73
2022-10-17T19:49:29.260Z,11.60
2022-10-17T19:51:56.375Z,7.55
2022-10-17T19:54:23.485Z,12.02
2022-10-17T19:56:50.640Z,7.80
2022-10-17T19:59:18.143Z,9.50
2022-10-17T20:01:45.776Z,10.73
2022-10-17T20:04:13.336Z,9.02
2022-10-17T20:06:40.872Z,13.55
2022-10-17T20:09:11.140Z,12.43
2022-10-17T20:11:41.138Z,8.93
2022-10-17T20:14:08.436Z,10.30
2022-10-17T20:16:36.504Z,14.23
2022-10-17T20:19:06.673Z,7.00
2022-10-17T20:21:39.409Z,7.60
2022-10-17T20:24:10.921Z,8.25
2022-10-17T20:26:39.460Z,13.02
2022-10-17T20:29:11.606Z,5.80
2022-10-17T20:31:40.037Z,7.80
2022-10-17T20:34:07.124Z,12.55
2022-10-17T20:36:37.033Z,8.80
2022-10-17T20:39:05.256Z,11.40
2022-10-17T20:41:32.540Z,6.22
2022-10-17T20:43:59.661Z,10.40
2022-10-17T20:46:48.775Z,7.55
2022-10-17T20:49:18.788Z,7.80
2022-10-17T20:51:46.371Z,10.80
2022-10-17T20:54:13.484Z,9.15
2022-10-17T20:56:40.615Z,6.95
2022-10-17T20:59:12.630Z,15.05
2022-10-17T21:01:39.901Z,12.18
2022-10-17T21:04:33.145Z,7.93
2022-10-17T21:06:54.213Z,9.93
2022-10-17T21:09:21.703Z,7.35
2022-10-17T21:11:52.453Z,7.95
2022-10-17T21:14:19.788Z,9.07
2022-10-17T21:16:47.027Z,12.73
2022-10-17T21:19:14.896Z,8.43
2022-10-17T21:21:44.248Z,9.38
2022-10-17T21:24:17.366Z,7.60
2022-10-17T21:26:45.649Z,7.43
2022-10-17T21:29:13.435Z,13.43
2022-10-17T21:31:43.217Z,10.52
2022-10-17T21:34:18.451Z,10.13
2022-10-17T21:36:45.619Z,10.82
2022-10-17T21:39:14.315Z,15.38
2022-10-17T21:41:41.902Z,11.13
2022-10-17T21:44:14.519Z,7.95
2022-10-17T21:46:42.186Z,11.52
2022-10-17T21:49:12.030Z,13.32
2022-10-17T21:51:40.061Z,11.10
2022-10-17T21:54:07.890Z,13.52
2022-10-17T21:56:36.281Z,13.27
2022-10-17T21:59:04.489Z,12.95
2022-10-17T22:01:37.881Z,10.93
2022-10-17T22:04:07.292Z,13.20
2022-10-17T22:06:40.164Z,14.25
2022-10-17T22:09:20.308Z,12.55
2022-10-17T22:11:49.415Z,12.30
2022-10-17T22:14:18.839Z,13.65
2022-10-17T22:16:46.840Z,11.18
2022-10-17T22:19:16.479Z,12.70
2022-10-17T22:21:43.612Z,11.13
2022-10-17T22:24:12.671Z,10.25
2022-10-17T22:26:40.279Z,10.82
2022-10-17T22:29:08.723Z,11.48
2022-10-17T22:31:36.530Z,13.73
2022-10-17T22:34:05.514Z,11.55
2022-10-17T22:36:33.336Z,13.60
2022-10-17T22:39:00.588Z,12.63
2022-10-17T22:41:27.847Z,10.48
2022-10-17T22:43:55.013Z,13.18
2022-10-17T22:46:22.210Z,10.55
2022-10-17T22:48:49.422Z,11.52
2022-10-17T22:51:16.692Z,10.77
2022-10-17T22:53:43.868Z,12.30
2022-10-17T22:56:14.568Z,14.52
2022-10-17T22:58:42.021Z,12.95
2022-10-17T23:01:12.528Z,13.13
2022-10-17T23:03:39.735Z,11.18
2022-10-17T23:06:06.875Z,10.77
2022-10-17T23:08:34.047Z,12.50
2022-10-17T23:11:01.200Z,10.45
2022-10-17T23:13:28.413Z,18.27
2022-10-17T23:15:56.609Z,9.00
2022-10-17T23:18:25.066Z,13.90
2022-10-17T23:20:52.573Z,10.27
2022-10-17T23:23:19.839Z,10.80
2022-10-17T23:25:47.561Z,8.13
2022-10-17T23:28:14.729Z,9.25
2022-10-17T23:30:41.983Z,10.90
2022-10-17T23:33:10.734Z,8.43
2022-10-17T23:35:37.902Z,11.30
2022-10-17T23:38:05.038Z,12.15
2022-10-17T23:40:32.201Z,7.20
2022-10-17T23:42:59.456Z,9.48
2022-10-17T23:45:26.759Z,10.50
2022-10-17T23:47:53.851Z,12.30
2022-10-17T23:50:20.973Z,9.40
2022-10-17T23:52:48.146Z,12.07
2022-10-17T23:55:15.254Z,9.13
2022-10-17T23:57:42.377Z,9.93
